createdAt,value
2023-03-29T00:00:16.926Z,2.70
2023-03-29T00:03:04.730Z,2.70
2023-03-29T00:05:35.109Z,2.40
2023-03-29T00:08:04.611Z,2.70
2023-03-29T00:10:32.782Z,3.20
2023-03-29T00:13:00.524Z,3.10
2023-03-29T00:15:28.189Z,3.20
2023-03-29T00:17:56.155Z,2.80
2023-03-29T00:20:23.918Z,2.30
2023-03-29T00:22:51.886Z,2.60
2023-03-29T00:25:19.550Z,2.90
2023-03-29T00:27:47.309Z,3.50
2023-03-29T00:30:15.600Z,3.20
2023-03-29T00:32:43.364Z,2.60
2023-03-29T00:35:11.224Z,3.00
2023-03-29T00:37:38.877Z,3.50
2023-03-29T00:40:11.253Z,2.90
2023-03-29T00:42:38.923Z,2.90
2023-03-29T00:45:07.295Z,2.80
2023-03-29T00:47:35.080Z,2.80
2023-03-29T00:50:02.821Z,2.60
2023-03-29T00:52:30.489Z,3.10
2023-03-29T00:54:58.142Z,2.60
2023-03-29T00:57:27.695Z,2.90
2023-03-29T00:59:55.614Z,2.60
2023-03-29T01:02:23.410Z,2.70
2023-03-29T01:04:51.145Z,2.80
2023-03-29T01:07:21.566Z,3.50
2023-03-29T01:09:49.438Z,2.30
2023-03-29T01:12:20.172Z,2.70
2023-03-29T01:14:47.942Z,2.40
2023-03-29T01:17:16.317Z,2.00
2023-03-29T01:19:43.984Z,2.90
2023-03-29T01:22:13.701Z,2.50
2023-03-29T01:24:42.241Z,2.00
2023-03-29T01:27:10.032Z,3.00
2023-03-29T01:29:37.797Z,2.70
2023-03-29T01:32:05.624Z,3.60
2023-03-29T01:34:33.533Z,2.70
2023-03-29T01:37:01.191Z,3.40
2023-03-29T01:39:28.955Z,2.90
2023-03-29T01:41:56.719Z,2.80
2023-03-29T01:44:24.484Z,2.60
2023-03-29T01:46:52.149Z,2.90
2023-03-29T01:49:19.806Z,3.20
2023-03-29T01:51:47.468Z,3.40
2023-03-29T01:54:15.141Z,2.30
2023-03-29T01:56:42.933Z,3.10
2023-03-29T01:59:11.487Z,2.20
2023-03-29T02:01:39.181Z,2.30
2023-03-29T02:04:07.008Z,3.40
2023-03-29T02:06:34.772Z,2.60
2023-03-29T02:09:05.095Z,3.10
2023-03-29T02:11:32.753Z,3.30
2023-03-29T02:14:00.928Z,2.60
2023-03-29T02:16:28.899Z,3.20
2023-03-29T02:18:57.171Z,2.50
2023-03-29T02:21:24.940Z,3.70
2023-03-29T02:23:54.868Z,3.10
2023-03-29T02:26:24.129Z,3.20
2023-03-29T02:28:53.144Z,3.60
2023-03-29T02:31:21.576Z,4.00
2023-03-29T02:33:49.386Z,3.90
2023-03-29T02:36:17.849Z,3.80
2023-03-29T02:38:46.656Z,3.10
2023-03-29T02:41:14.420Z,3.40
2023-03-29T02:43:42.490Z,3.00
2023-03-29T02:46:10.192Z,4.30
2023-03-29T02:48:38.028Z,3.60
2023-03-29T02:51:05.991Z,3.70
2023-03-29T02:53:33.761Z,3.70
2023-03-29T02:56:02.473Z,4.20
2023-03-29T02:58:31.850Z,3.60
2023-03-29T03:00:59.829Z,3.50
2023-03-29T03:03:27.929Z,3.70
2023-03-29T03:05:55.650Z,3.40
2023-03-29T03:08:23.411Z,3.80
2023-03-29T03:10:51.076Z,3.60
2023-03-29T03:13:18.938Z,4.10
2023-03-29T03:15:49.426Z,3.40
2023-03-29T03:18:17.847Z,3.60
2023-03-29T03:20:46.844Z,3.50
2023-03-29T03:23:14.604Z,3.60
2023-03-29T03:25:42.261Z,3.30
2023-03-29T03:28:10.445Z,4.40
2023-03-29T03:30:38.812Z,4.00
2023-03-29T03:33:06.506Z,3.60
2023-03-29T03:35:35.104Z,3.40
2023-03-29T03:38:02.922Z,3.60
2023-03-29T03:40:30.690Z,4.30
2023-03-29T03:42:58.460Z,4.50
2023-03-29T03:45:26.322Z,3.90
2023-03-29T03:47:54.241Z,4.10
2023-03-29T03:50:21.951Z,3.80
2023-03-29T03:52:49.627Z,3.90
2023-03-29T03:55:17.993Z,4.00
2023-03-29T03:57:45.919Z,4.30
2023-03-29T04:00:19.983Z,3.70
2023-03-29T04:02:48.482Z,4.00
2023-03-29T04:05:17.339Z,4.20
2023-03-29T04:07:45.001Z,3.80
2023-03-29T04:10:12.764Z,3.80
2023-03-29T04:12:40.531Z,3.40
2023-03-29T04:15:08.902Z,4.10
2023-03-29T04:17:37.351Z,4.20
2023-03-29T04:20:12.798Z,3.50
2023-03-29T04:22:41.344Z,3.90
2023-03-29T04:25:10.571Z,3.50
2023-03-29T04:27:38.412Z,3.90
2023-03-29T04:30:07.472Z,4.00
2023-03-29T04:32:35.253Z,3.90
2023-03-29T04:35:04.955Z,3.60
2023-03-29T04:37:32.714Z,4.00
2023-03-29T04:40:09.208Z,5.10
2023-03-29T04:42:37.640Z,4.40
2023-03-29T04:45:07.396Z,5.40
2023-03-29T04:47:36.723Z,4.70
2023-03-29T04:50:04.535Z,5.20
2023-03-29T04:52:33.561Z,4.70
2023-03-29T04:55:01.806Z,5.90
2023-03-29T04:57:29.570Z,5.00
2023-03-29T04:59:57.336Z,5.60
2023-03-29T05:02:25.141Z,4.60
2023-03-29T05:04:52.864Z,7.00
2023-03-29T05:07:20.626Z,7.40
2023-03-29T05:09:48.797Z,8.70
2023-03-29T05:12:16.561Z,10.90
2023-03-29T05:14:44.237Z,10.10
2023-03-29T05:17:11.989Z,7.70
2023-03-29T05:19:39.761Z,9.60
2023-03-29T05:22:07.731Z,7.30
2023-03-29T05:24:35.513Z,7.20
2023-03-29T05:27:03.971Z,8.60
2023-03-29T05:29:34.389Z,8.50
2023-03-29T05:32:02.198Z,9.30
2023-03-29T05:34:31.659Z,7.70
2023-03-29T05:36:59.731Z,7.50
2023-03-29T05:39:27.491Z,8.10
2023-03-29T05:41:55.254Z,6.40
2023-03-29T05:44:23.019Z,8.20
2023-03-29T05:46:50.893Z,6.90
2023-03-29T05:49:18.865Z,8.60
2023-03-29T05:51:46.622Z,8.00
2023-03-29T05:54:15.304Z,5.40
2023-03-29T05:56:43.096Z,7.20
2023-03-29T05:59:10.835Z,7.60
2023-03-29T06:01:40.234Z,7.80
2023-03-29T06:04:08.087Z,6.80
2023-03-29T06:06:36.050Z,8.70
2023-03-29T06:09:04.347Z,8.40
2023-03-29T06:11:33.240Z,9.00
2023-03-29T06:14:02.640Z,8.00
2023-03-29T06:16:30.437Z,8.00
2023-03-29T06:18:58.475Z,7.40
2023-03-29T06:21:27.468Z,9.90
2023-03-29T06:23:55.136Z,8.00
2023-03-29T06:26:23.311Z,8.30
2023-03-29T06:28:52.386Z,8.10
2023-03-29T06:31:21.293Z,9.90
2023-03-29T06:33:49.773Z,9.10
2023-03-29T06:36:17.571Z,8.20
2023-03-29T06:38:46.222Z,10.00
2023-03-29T06:41:15.118Z,7.60
2023-03-29T06:43:42.876Z,9.00
2023-03-29T06:46:12.563Z,9.90
2023-03-29T06:48:41.195Z,9.00
2023-03-29T06:51:08.946Z,11.20
2023-03-29T06:53:37.007Z,8.20
2023-03-29T06:56:05.505Z,9.80
2023-03-29T06:58:33.254Z,9.50
2023-03-29T07:01:02.574Z,9.10
2023-03-29T07:03:30.632Z,9.30
2023-03-29T07:06:01.454Z,8.40
2023-03-29T07:08:31.979Z,7.70
2023-03-29T07:11:00.083Z,7.80
2023-03-29T07:13:28.023Z,8.00
2023-03-29T07:15:56.049Z,7.60
2023-03-29T07:18:24.062Z,6.60
2023-03-29T07:20:52.444Z,7.30
2023-03-29T07:23:20.081Z,8.00
2023-03-29T07:25:47.767Z,7.50
2023-03-29T07:28:15.424Z,8.20
2023-03-29T07:30:43.088Z,7.50
2023-03-29T07:33:10.838Z,7.00
2023-03-29T07:35:38.665Z,7.20
2023-03-29T07:38:08.427Z,6.10
2023-03-29T07:40:36.071Z,8.30
2023-03-29T07:43:09.138Z,6.80
2023-03-29T07:45:37.253Z,6.50
2023-03-29T07:48:05.158Z,6.60
2023-03-29T07:50:32.990Z,5.90
2023-03-29T07:53:01.665Z,5.40
2023-03-29T07:55:29.426Z,4.80
2023-03-29T07:57:57.092Z,4.80
2023-03-29T08:00:25.221Z,3.60
2023-03-29T08:02:53.263Z,3.70
2023-03-29T08:05:29.059Z,6.10
2023-03-29T08:08:01.562Z,5.90
2023-03-29T08:10:29.220Z,4.10
2023-03-29T08:12:58.420Z,2.90
2023-03-29T08:15:26.800Z,3.40
2023-03-29T08:17:54.701Z,3.20
2023-03-29T08:20:22.540Z,3.00
2023-03-29T08:22:50.165Z,3.30
2023-03-29T08:25:17.959Z,5.30
2023-03-29T08:27:45.625Z,3.70
2023-03-29T08:30:15.750Z,4.30
2023-03-29T08:32:43.680Z,3.70
2023-03-29T08:35:11.480Z,4.20
2023-03-29T08:37:39.346Z,3.00
2023-03-29T08:40:07.105Z,4.60
2023-03-29T08:42:34.815Z,4.90
2023-03-29T08:45:03.047Z,6.10
2023-03-29T08:47:31.342Z,4.90
2023-03-29T08:49:59.391Z,5.10
2023-03-29T08:52:27.328Z,4.80
2023-03-29T08:54:56.141Z,3.40
2023-03-29T08:57:24.061Z,4.30
2023-03-29T08:59:51.979Z,3.80
2023-03-29T09:02:19.680Z,4.60
2023-03-29T09:04:49.127Z,4.10
2023-03-29T09:07:17.216Z,4.30
2023-03-29T09:09:45.181Z,4.50
2023-03-29T09:12:13.355Z,4.60
2023-03-29T09:14:41.231Z,4.50
2023-03-29T09:17:08.990Z,4.70
2023-03-29T09:19:36.657Z,4.10
2023-03-29T09:22:04.617Z,4.90
2023-03-29T09:24:32.687Z,4.20
2023-03-29T09:27:00.458Z,3.80
2023-03-29T09:29:28.215Z,4.30
2023-03-29T09:31:56.666Z,3.90
2023-03-29T09:34:24.431Z,4.40
2023-03-29T09:36:52.682Z,5.10
2023-03-29T09:39:23.367Z,5.10
2023-03-29T09:41:51.032Z,5.10
2023-03-29T09:44:30.138Z,6.10
2023-03-29T09:46:58.640Z,5.40
2023-03-29T09:49:26.405Z,5.40
2023-03-29T09:51:54.576Z,6.50
2023-03-29T09:54:22.446Z,5.10
2023-03-29T09:56:50.262Z,4.90
2023-03-29T09:59:18.080Z,4.40
2023-03-29T10:01:46.006Z,5.30
2023-03-29T10:04:13.851Z,5.80
2023-03-29T10:06:41.572Z,6.10
2023-03-29T10:09:09.339Z,4.40
2023-03-29T10:11:37.212Z,5.20
2023-03-29T10:14:04.979Z,4.10
2023-03-29T10:16:32.831Z,7.50
2023-03-29T10:19:00.598Z,5.50
2023-03-29T10:21:28.222Z,4.10
2023-03-29T10:23:55.922Z,4.50
2023-03-29T10:26:24.094Z,5.60
2023-03-29T10:28:51.859Z,5.40
2023-03-29T10:31:19.746Z,5.00
2023-03-29T10:33:47.492Z,4.60
2023-03-29T10:36:15.646Z,5.10
2023-03-29T10:38:43.425Z,5.50
2023-03-29T10:41:11.207Z,5.30
2023-03-29T10:43:52.778Z,4.60
2023-03-29T10:46:21.004Z,5.60
2023-03-29T10:48:49.234Z,3.90
2023-03-29T10:51:17.092Z,8.00
2023-03-29T10:53:44.860Z,5.80
2023-03-29T10:56:12.936Z,5.20
2023-03-29T10:58:40.694Z,4.20
2023-03-29T11:01:08.377Z,4.00
2023-03-29T11:03:36.277Z,4.30
2023-03-29T11:06:04.498Z,4.90
2023-03-29T11:08:32.214Z,4.20
2023-03-29T11:11:00.018Z,3.80
2023-03-29T11:13:28.094Z,2.80
2023-03-29T11:15:56.007Z,3.90
2023-03-29T11:18:23.835Z,3.80
2023-03-29T11:20:52.103Z,4.10
2023-03-29T11:23:19.765Z,4.50
2023-03-29T11:25:47.629Z,4.60
2023-03-29T11:28:15.395Z,3.50
2023-03-29T11:30:43.160Z,3.50
2023-03-29T11:33:10.831Z,3.50
2023-03-29T11:35:38.648Z,4.10
2023-03-29T11:38:06.961Z,3.50
2023-03-29T11:40:36.400Z,3.80
2023-03-29T11:43:04.744Z,2.00
2023-03-29T11:45:32.715Z,3.80
2023-03-29T11:48:00.531Z,3.10
2023-03-29T11:50:28.343Z,3.70
2023-03-29T11:52:56.209Z,4.00
2023-03-29T11:55:23.977Z,3.80
2023-03-29T11:57:51.741Z,3.30
2023-03-29T12:00:19.910Z,3.90
2023-03-29T12:02:48.447Z,4.10
2023-03-29T12:05:17.900Z,3.70
2023-03-29T12:07:45.863Z,4.10
2023-03-29T12:10:13.630Z,3.80
2023-03-29T12:12:41.293Z,3.00
2023-03-29T12:15:09.361Z,2.70
2023-03-29T12:17:37.395Z,3.10
2023-03-29T12:20:05.337Z,3.50
2023-03-29T12:22:33.879Z,3.50
2023-03-29T12:25:01.652Z,3.80
2023-03-29T12:27:29.410Z,4.00
2023-03-29T12:29:57.174Z,3.50
2023-03-29T12:32:24.878Z,3.30
2023-03-29T12:34:52.704Z,3.90
2023-03-29T12:37:21.185Z,4.10
2023-03-29T12:39:49.362Z,5.80
2023-03-29T12:42:17.278Z,4.80
2023-03-29T12:44:44.992Z,5.30
2023-03-29T12:47:12.652Z,3.90
2023-03-29T12:49:40.315Z,3.50
2023-03-29T12:52:07.978Z,5.00
2023-03-29T12:54:35.860Z,4.50
2023-03-29T12:57:03.543Z,4.20
2023-03-29T12:59:31.370Z,4.10
2023-03-29T13:01:59.071Z,5.70
2023-03-29T13:04:27.208Z,3.50
2023-03-29T13:06:56.372Z,3.60
2023-03-29T13:09:24.077Z,3.60
2023-03-29T13:11:51.852Z,3.20
2023-03-29T13:14:19.603Z,3.30
2023-03-29T13:16:47.361Z,4.00
2023-03-29T13:19:15.023Z,5.40
2023-03-29T13:21:42.784Z,3.70
2023-03-29T13:24:10.441Z,3.50
2023-03-29T13:26:38.108Z,4.10
2023-03-29T13:29:05.766Z,3.60
2023-03-29T13:31:33.469Z,4.20
2023-03-29T13:34:01.508Z,3.60
2023-03-29T13:36:30.747Z,3.00
2023-03-29T13:39:00.406Z,3.60
2023-03-29T13:41:28.986Z,4.30
2023-03-29T13:43:56.752Z,3.80
2023-03-29T13:46:24.486Z,4.40
2023-03-29T13:48:53.972Z,4.00
2023-03-29T13:51:21.997Z,4.20
2023-03-29T13:53:49.652Z,3.70
2023-03-29T13:56:17.320Z,3.80
2023-03-29T13:58:45.079Z,4.10
2023-03-29T14:01:12.989Z,3.30
2023-03-29T14:03:40.713Z,3.00
2023-03-29T14:06:08.370Z,3.10
2023-03-29T14:08:36.122Z,4.00
2023-03-29T14:11:03.909Z,3.80
2023-03-29T14:13:31.661Z,3.50
2023-03-29T14:16:00.286Z,3.40
2023-03-29T14:18:28.108Z,2.80
2023-03-29T14:20:55.872Z,3.20
2023-03-29T14:23:23.644Z,3.60
2023-03-29T14:25:51.495Z,3.50
2023-03-29T14:28:19.275Z,3.10
2023-03-29T14:30:47.445Z,3.00
2023-03-29T14:33:15.104Z,2.50
2023-03-29T14:35:42.931Z,3.60
2023-03-29T14:38:10.628Z,2.90
2023-03-29T14:40:38.291Z,3.40
2023-03-29T14:43:06.081Z,3.40
2023-03-29T14:45:33.826Z,2.70
2023-03-29T14:48:01.833Z,3.20
2023-03-29T14:50:29.653Z,3.10
2023-03-29T14:52:57.420Z,3.20
2023-03-29T14:55:25.170Z,3.40
2023-03-29T14:57:52.947Z,2.80
2023-03-29T15:00:21.427Z,2.90
2023-03-29T15:02:49.243Z,2.90
2023-03-29T15:05:17.162Z,2.60
2023-03-29T15:07:45.030Z,2.50
2023-03-29T15:10:12.686Z,2.60
2023-03-29T15:12:40.350Z,3.60
2023-03-29T15:15:10.679Z,2.70
2023-03-29T15:17:50.314Z,3.20
2023-03-29T15:20:21.602Z,2.10
2023-03-29T15:22:49.539Z,3.20
2023-03-29T15:25:17.502Z,2.90
2023-03-29T15:27:45.263Z,2.50
2023-03-29T15:30:13.031Z,2.80
2023-03-29T15:32:41.780Z,2.50
2023-03-29T15:35:09.788Z,3.40
2023-03-29T15:37:37.960Z,2.20
2023-03-29T15:40:09.931Z,2.20
2023-03-29T15:42:37.787Z,2.40
2023-03-29T15:45:06.652Z,2.60
2023-03-29T15:47:34.377Z,2.20
2023-03-29T15:50:02.210Z,3.00
2023-03-29T15:52:29.979Z,2.30
2023-03-29T15:54:57.731Z,2.30
2023-03-29T15:57:25.708Z,3.90
2023-03-29T15:59:53.582Z,3.00
2023-03-29T16:02:21.910Z,4.70
2023-03-29T16:04:49.815Z,5.30
2023-03-29T16:07:17.474Z,7.80
2023-03-29T16:09:46.060Z,6.10
2023-03-29T16:12:13.718Z,66.00
2023-03-29T16:14:43.036Z,17.10
2023-03-29T16:17:11.089Z,11.80
2023-03-29T16:19:38.859Z,10.20
2023-03-29T16:22:07.693Z,5.90
2023-03-29T16:24:35.820Z,8.20
2023-03-29T16:27:04.001Z,8.30
2023-03-29T16:29:31.994Z,4.30
2023-03-29T16:32:00.221Z,5.40
2023-03-29T16:34:28.529Z,4.20
2023-03-29T16:36:56.171Z,3.20
2023-03-29T16:39:23.943Z,5.20
2023-03-29T16:41:51.698Z,8.30
2023-03-29T16:44:21.776Z,12.20
2023-03-29T16:46:51.835Z,18.60
2023-03-29T16:49:19.744Z,22.30
2023-03-29T16:51:48.081Z,25.90
2023-03-29T16:54:17.376Z,54.70
2023-03-29T16:56:45.175Z,25.40
2023-03-29T16:59:12.906Z,22.20
2023-03-29T17:01:40.928Z,20.80
2023-03-29T17:04:09.015Z,17.60
2023-03-29T17:06:37.233Z,18.80
2023-03-29T17:09:06.258Z,20.60
2023-03-29T17:11:34.307Z,20.50
2023-03-29T17:14:02.156Z,21.00
2023-03-29T17:16:29.850Z,20.80
2023-03-29T17:18:58.709Z,25.90
2023-03-29T17:21:27.490Z,27.10
2023-03-29T17:23:55.670Z,32.30
2023-03-29T17:26:23.325Z,41.60
2023-03-29T17:28:51.094Z,43.50
2023-03-29T17:31:19.896Z,42.70
2023-03-29T17:33:50.611Z,41.30
2023-03-29T17:36:19.340Z,37.70
2023-03-29T17:38:48.973Z,39.70
2023-03-29T17:41:16.678Z,37.50
2023-03-29T17:43:44.805Z,38.60
2023-03-29T17:46:12.537Z,43.90
2023-03-29T17:48:40.376Z,96.00
2023-03-29T17:51:08.033Z,92.40
2023-03-29T17:53:35.706Z,58.30
2023-03-29T17:56:04.434Z,50.90
2023-03-29T17:58:33.074Z,68.20
2023-03-29T18:01:01.578Z,95.80
2023-03-29T18:03:29.249Z,118.50
2023-03-29T18:05:56.979Z,105.20
2023-03-29T18:08:24.597Z,104.90
2023-03-29T18:10:52.301Z,120.10
2023-03-29T18:13:25.634Z,188.70
2023-03-29T18:15:53.353Z,167.90
2023-03-29T18:18:21.029Z,165.70
2023-03-29T18:20:48.783Z,125.30
2023-03-29T18:23:16.442Z,98.20
2023-03-29T18:25:44.106Z,120.60
2023-03-29T18:28:11.972Z,121.40
2023-03-29T18:30:39.739Z,80.70
2023-03-29T18:33:07.552Z,48.20
2023-03-29T18:35:35.285Z,51.90
2023-03-29T18:38:03.644Z,62.40
2023-03-29T18:40:31.308Z,69.50
2023-03-29T18:42:58.967Z,100.00
2023-03-29T18:45:26.734Z,82.20
2023-03-29T18:47:54.441Z,91.20
2023-03-29T18:50:22.569Z,127.10
2023-03-29T18:52:50.230Z,84.50
2023-03-29T18:55:17.891Z,83.50
2023-03-29T18:57:45.692Z,85.60
2023-03-29T19:00:13.422Z,113.40
2023-03-29T19:02:41.272Z,79.10
2023-03-29T19:05:09.179Z,89.50
2023-03-29T19:07:37.020Z,61.10
2023-03-29T19:10:05.163Z,71.50
2023-03-29T19:12:33.469Z,66.40
2023-03-29T19:15:01.234Z,44.60
2023-03-29T19:17:29.015Z,45.00
2023-03-29T19:19:56.976Z,124.40
2023-03-29T19:22:24.617Z,66.90
2023-03-29T19:24:52.393Z,37.10
2023-03-29T19:27:20.158Z,70.50
2023-03-29T19:29:48.437Z,48.90
2023-03-29T19:32:16.408Z,35.50
2023-03-29T19:34:44.077Z,32.40
2023-03-29T19:37:11.837Z,27.20
2023-03-29T19:39:41.229Z,28.10
2023-03-29T19:42:08.885Z,29.60
2023-03-29T19:44:38.392Z,30.40
2023-03-29T19:47:06.212Z,24.90
2023-03-29T19:49:38.422Z,28.50
2023-03-29T19:52:06.492Z,28.10
2023-03-29T19:54:34.182Z,28.90
2023-03-29T19:57:02.976Z,25.30
2023-03-29T19:59:31.622Z,27.40
2023-03-29T20:01:59.520Z,22.70
2023-03-29T20:04:29.014Z,23.80
2023-03-29T20:06:57.790Z,22.60
2023-03-29T20:09:25.450Z,22.80
2023-03-29T20:11:53.212Z,21.60
2023-03-29T20:14:20.975Z,22.00
2023-03-29T20:16:50.933Z,24.60
2023-03-29T20:19:19.476Z,23.60
2023-03-29T20:21:50.923Z,21.10
2023-03-29T20:24:19.102Z,19.80
2023-03-29T20:26:46.725Z,21.20
2023-03-29T20:29:15.551Z,19.60
2023-03-29T20:31:43.273Z,20.80
2023-03-29T20:34:11.383Z,21.70
2023-03-29T20:36:40.551Z,21.60
2023-03-29T20:39:08.548Z,19.50
2023-03-29T20:41:38.464Z,20.00
2023-03-29T20:44:06.437Z,20.40
2023-03-29T20:46:34.374Z,22.50
2023-03-29T20:49:02.280Z,19.00
2023-03-29T20:51:33.108Z,20.60
2023-03-29T20:54:02.782Z,20.70
2023-03-29T20:56:30.686Z,22.60
2023-03-29T20:58:59.058Z,22.30
2023-03-29T21:01:28.085Z,23.20
2023-03-29T21:03:55.987Z,22.80
2023-03-29T21:06:24.603Z,26.10
2023-03-29T21:08:52.760Z,23.00
2023-03-29T21:11:20.444Z,25.90
2023-03-29T21:13:48.211Z,29.40
2023-03-29T21:16:15.987Z,23.30
2023-03-29T21:18:44.046Z,26.80
2023-03-29T21:21:11.700Z,25.40
2023-03-29T21:23:39.468Z,21.80
2023-03-29T21:26:08.052Z,17.90
2023-03-29T21:28:36.023Z,20.80
2023-03-29T21:31:04.964Z,18.90
2023-03-29T21:33:33.090Z,18.50
2023-03-29T21:36:01.293Z,16.90
2023-03-29T21:38:29.022Z,16.70
2023-03-29T21:40:58.242Z,16.30
2023-03-29T21:43:25.954Z,15.70
2023-03-29T21:45:53.844Z,15.20
2023-03-29T21:48:21.507Z,14.70
2023-03-29T21:50:49.683Z,13.90
2023-03-29T21:53:18.478Z,18.50
2023-03-29T21:55:46.234Z,15.40
2023-03-29T21:58:13.895Z,19.10
2023-03-29T22:00:41.923Z,18.30
2023-03-29T22:03:09.696Z,15.50
2023-03-29T22:05:37.501Z,13.40
2023-03-29T22:08:05.267Z,14.00
2023-03-29T22:10:33.747Z,12.70
2023-03-29T22:13:01.505Z,12.80
2023-03-29T22:15:35.653Z,12.20
2023-03-29T22:18:03.415Z,12.70
2023-03-29T22:20:31.249Z,11.70
2023-03-29T22:22:58.910Z,11.60
2023-03-29T22:25:27.289Z,13.00
2023-03-29T22:27:54.952Z,14.30
2023-03-29T22:30:23.039Z,14.20
2023-03-29T22:32:51.018Z,11.90
2023-03-29T22:35:18.956Z,11.90
2023-03-29T22:37:46.618Z,13.30
2023-03-29T22:40:14.280Z,11.90
2023-03-29T22:42:41.958Z,14.40
2023-03-29T22:45:09.708Z,16.00
2023-03-29T22:47:37.538Z,15.40
2023-03-29T22:50:05.233Z,14.30
2023-03-29T22:52:33.003Z,12.60
2023-03-29T22:55:00.676Z,13.10
2023-03-29T22:57:28.445Z,15.40
2023-03-29T22:59:56.288Z,14.60
2023-03-29T23:02:24.504Z,14.70
2023-03-29T23:04:52.360Z,16.30
2023-03-29T23:07:20.198Z,15.80
2023-03-29T23:09:47.855Z,17.40
2023-03-29T23:12:15.726Z,22.80
2023-03-29T23:14:45.431Z,25.90
2023-03-29T23:17:13.602Z,17.00
2023-03-29T23:19:41.790Z,16.50
2023-03-29T23:22:09.440Z,13.80
2023-03-29T23:24:37.101Z,13.30
2023-03-29T23:27:05.682Z,12.20
2023-03-29T23:29:34.678Z,16.10
2023-03-29T23:32:02.343Z,19.10
2023-03-29T23:34:30.315Z,28.70
2023-03-29T23:36:57.969Z,31.80
2023-03-29T23:39:25.633Z,21.20
2023-03-29T23:41:53.396Z,15.90
2023-03-29T23:44:21.056Z,16.70
2023-03-29T23:46:48.854Z,20.80
2023-03-29T23:49:17.404Z,22.90
2023-03-29T23:51:45.166Z,20.40
2023-03-29T23:54:13.137Z,15.20
2023-03-29T23:56:40.887Z,11.40
2023-03-29T23:59:09.091Z,10.60
